sensor_id;sensor_type;location;lat;lon;timestamp;P1;durP1;ratioP1;P2;durP2;ratioP2
74963;SDS011;63521;51.900;4.748;2022-12-13T00:00:00;7.55;;;2.97;;
74963;SDS011;63521;51.900;4.748;2022-12-13T00:02:26;7.28;;;3.08;;
74963;SDS011;63521;51.900;4.748;2022-12-13T00:04:51;5.47;;;3.00;;
74963;SDS011;63521;51.900;4.748;2022-12-13T00:07:17;8.75;;;3.55;;
74963;SDS011;63521;51.900;4.748;2022-12-13T00:09:42;7.07;;;3.13;;
74963;SDS011;63521;51.900;4.748;2022-12-13T00:12:07;7.90;;;3.13;;
74963;SDS011;63521;51.900;4.748;2022-12-13T00:14:33;12.43;;;4.18;;
74963;SDS011;63521;51.900;4.748;2022-12-13T00:16:58;7.90;;;3.20;;
74963;SDS011;63521;51.900;4.748;2022-12-13T00:19:24;5.55;;;2.88;;
74963;SDS011;63521;51.900;4.748;2022-12-13T00:21:49;8.15;;;3.15;;
74963;SDS011;63521;51.900;4.748;2022-12-13T00:24:15;6.57;;;2.92;;
74963;SDS011;63521;51.900;4.748;2022-12-13T00:26:40;8.10;;;3.15;;
74963;SDS011;63521;51.900;4.748;2022-12-13T00:29:06;8.10;;;3.20;;
74963;SDS011;63521;51.900;4.748;2022-12-13T00:31:32;6.63;;;3.33;;
74963;SDS011;63521;51.900;4.748;2022-12-13T00:33:58;6.25;;;2.83;;
74963;SDS011;63521;51.900;4.748;2022-12-13T00:36:24;4.95;;;2.67;;
74963;SDS011;63521;51.900;4.748;2022-12-13T00:38:50;7.18;;;3.30;;
74963;SDS011;63521;51.900;4.748;2022-12-13T00:41:25;6.63;;;3.42;;
74963;SDS011;63521;51.900;4.748;2022-12-13T00:43:52;7.50;;;3.13;;
74963;SDS011;63521;51.900;4.748;2022-12-13T00:46:18;7.38;;;3.25;;
74963;SDS011;63521;51.900;4.748;2022-12-13T00:48:47;5.82;;;2.90;;
74963;SDS011;63521;51.900;4.748;2022-12-13T00:51:13;7.40;;;3.00;;
74963;SDS011;63521;51.900;4.748;2022-12-13T00:53:38;9.20;;;2.92;;
74963;SDS011;63521;51.900;4.748;2022-12-13T00:56:08;9.63;;;3.38;;
74963;SDS011;63521;51.900;4.748;2022-12-13T00:58:39;6.60;;;3.15;;
74963;SDS011;63521;51.900;4.748;2022-12-13T01:03:31;6.40;;;3.05;;
74963;SDS011;63521;51.900;4.748;2022-12-13T01:05:56;8.10;;;3.00;;
74963;SDS011;63521;51.900;4.748;2022-12-13T01:08:22;7.00;;;2.92;;
74963;SDS011;63521;51.900;4.748;2022-12-13T01:10:47;9.02;;;3.10;;
74963;SDS011;63521;51.900;4.748;2022-12-13T01:13:13;6.55;;;3.30;;
74963;SDS011;63521;51.900;4.748;2022-12-13T01:18:08;6.15;;;2.88;;
74963;SDS011;63521;51.900;4.748;2022-12-13T01:20:34;8.88;;;3.03;;
74963;SDS011;63521;51.900;4.748;2022-12-13T01:23:01;7.40;;;3.08;;
74963;SDS011;63521;51.900;4.748;2022-12-13T01:25:26;6.43;;;3.08;;
74963;SDS011;63521;51.900;4.748;2022-12-13T01:27:52;7.43;;;3.58;;
74963;SDS011;63521;51.900;4.748;2022-12-13T01:30:17;8.10;;;3.47;;
74963;SDS011;63521;51.900;4.748;2022-12-13T01:32:43;7.20;;;3.22;;
74963;SDS011;63521;51.900;4.748;2022-12-13T01:35:08;7.18;;;3.35;;
74963;SDS011;63521;51.900;4.748;2022-12-13T01:37:33;6.15;;;2.80;;
74963;SDS011;63521;51.900;4.748;2022-12-13T01:40:00;7.15;;;3.33;;
74963;SDS011;63521;51.900;4.748;2022-12-13T01:42:28;7.68;;;3.20;;
74963;SDS011;63521;51.900;4.748;2022-12-13T01:45:14;7.95;;;3.03;;
74963;SDS011;63521;51.900;4.748;2022-12-13T01:47:43;7.10;;;3.50;;
74963;SDS011;63521;51.900;4.748;2022-12-13T01:50:12;6.88;;;3.30;;
74963;SDS011;63521;51.900;4.748;2022-12-13T01:52:43;6.57;;;3.22;;
74963;SDS011;63521;51.900;4.748;2022-12-13T01:55:09;9.10;;;3.30;;
74963;SDS011;63521;51.900;4.748;2022-12-13T01:57:36;6.35;;;3.08;;
74963;SDS011;63521;51.900;4.748;2022-12-13T02:00:05;7.78;;;3.53;;
74963;SDS011;63521;51.900;4.748;2022-12-13T02:02:31;6.63;;;2.95;;
74963;SDS011;63521;51.900;4.748;2022-12-13T02:05:01;9.43;;;3.97;;
74963;SDS011;63521;51.900;4.748;2022-12-13T02:07:30;6.95;;;3.03;;
74963;SDS011;63521;51.900;4.748;2022-12-13T02:09:57;8.70;;;3.20;;
74963;SDS011;63521;51.900;4.748;2022-12-13T02:12:28;9.85;;;3.55;;
74963;SDS011;63521;51.900;4.748;2022-12-13T02:14:57;8.18;;;3.95;;
74963;SDS011;63521;51.900;4.748;2022-12-13T02:23:09;9.98;;;3.55;;
74963;SDS011;63521;51.900;4.748;2022-12-13T02:31:09;9.25;;;3.17;;
74963;SDS011;63521;51.900;4.748;2022-12-13T02:33:55;7.18;;;3.10;;
74963;SDS011;63521;51.900;4.748;2022-12-13T02:36:34;8.38;;;3.15;;
74963;SDS011;63521;51.900;4.748;2022-12-13T02:39:16;9.50;;;3.70;;
74963;SDS011;63521;51.900;4.748;2022-12-13T02:41:49;7.38;;;3.08;;
74963;SDS011;63521;51.900;4.748;2022-12-13T02:44:18;8.52;;;3.47;;
74963;SDS011;63521;51.900;4.748;2022-12-13T02:46:48;10.18;;;4.10;;
74963;SDS011;63521;51.900;4.748;2022-12-13T02:49:17;8.82;;;3.50;;
74963;SDS011;63521;51.900;4.748;2022-12-13T02:51:43;10.23;;;3.47;;
74963;SDS011;63521;51.900;4.748;2022-12-13T02:54:09;9.95;;;4.22;;
74963;SDS011;63521;51.900;4.748;2022-12-13T02:56:34;8.40;;;3.53;;
74963;SDS011;63521;51.900;4.748;2022-12-13T02:59:00;8.85;;;3.42;;
74963;SDS011;63521;51.900;4.748;2022-12-13T03:10:00;8.23;;;3.35;;
74963;SDS011;63521;51.900;4.748;2022-12-13T03:18:07;10.70;;;3.35;;
74963;SDS011;63521;51.900;4.748;2022-12-13T03:20:43;7.50;;;3.40;;
74963;SDS011;63521;51.900;4.748;2022-12-13T03:23:10;9.10;;;3.60;;
74963;SDS011;63521;51.900;4.748;2022-12-13T03:25:35;11.57;;;3.38;;
74963;SDS011;63521;51.900;4.748;2022-12-13T03:28:01;7.95;;;3.15;;
74963;SDS011;63521;51.900;4.748;2022-12-13T03:30:26;10.40;;;3.95;;
74963;SDS011;63521;51.900;4.748;2022-12-13T03:32:52;7.97;;;3.40;;
74963;SDS011;63521;51.900;4.748;2022-12-13T03:35:17;8.07;;;3.28;;
74963;SDS011;63521;51.900;4.748;2022-12-13T03:40:09;6.17;;;2.97;;
74963;SDS011;63521;51.900;4.748;2022-12-13T03:42:35;9.25;;;3.20;;
74963;SDS011;63521;51.900;4.748;2022-12-13T03:45:00;7.35;;;3.70;;
74963;SDS011;63521;51.900;4.748;2022-12-13T03:47:25;6.60;;;3.13;;
74963;SDS011;63521;51.900;4.748;2022-12-13T03:49:51;10.25;;;3.60;;
74963;SDS011;63521;51.900;4.748;2022-12-13T03:52:16;8.05;;;3.28;;
74963;SDS011;63521;51.900;4.748;2022-12-13T03:54:42;12.30;;;4.30;;
74963;SDS011;63521;51.900;4.748;2022-12-13T03:57:07;7.78;;;3.20;;
74963;SDS011;63521;51.900;4.748;2022-12-13T03:59:32;7.00;;;3.08;;
74963;SDS011;63521;51.900;4.748;2022-12-13T04:01:58;7.78;;;2.92;;
74963;SDS011;63521;51.900;4.748;2022-12-13T04:04:23;7.35;;;3.00;;
74963;SDS011;63521;51.900;4.748;2022-12-13T04:06:49;6.45;;;3.53;;
74963;SDS011;63521;51.900;4.748;2022-12-13T04:09:14;6.32;;;3.10;;
74963;SDS011;63521;51.900;4.748;2022-12-13T04:11:39;8.10;;;3.08;;
74963;SDS011;63521;51.900;4.748;2022-12-13T04:14:23;7.82;;;3.42;;
74963;SDS011;63521;51.900;4.748;2022-12-13T04:16:49;8.23;;;3.38;;
74963;SDS011;63521;51.900;4.748;2022-12-13T04:19:15;6.82;;;3.08;;
74963;SDS011;63521;51.900;4.748;2022-12-13T04:21:41;8.23;;;3.17;;
74963;SDS011;63521;51.900;4.748;2022-12-13T04:24:06;5.78;;;2.90;;
74963;SDS011;63521;51.900;4.748;2022-12-13T04:26:32;6.57;;;2.50;;
74963;SDS011;63521;51.900;4.748;2022-12-13T04:28:57;7.13;;;3.20;;
74963;SDS011;63521;51.900;4.748;2022-12-13T04:31:22;6.72;;;3.17;;
74963;SDS011;63521;51.900;4.748;2022-12-13T04:33:48;5.70;;;3.28;;
74963;SDS011;63521;51.900;4.748;2022-12-13T04:36:13;8.10;;;3.28;;
74963;SDS011;63521;51.900;4.748;2022-12-13T04:38:44;6.88;;;3.50;;
74963;SDS011;63521;51.900;4.748;2022-12-13T04:41:14;6.55;;;2.60;;
74963;SDS011;63521;51.900;4.748;2022-12-13T04:43:41;8.20;;;3.58;;
74963;SDS011;63521;51.900;4.748;2022-12-13T04:46:06;7.47;;;2.90;;
74963;SDS011;63521;51.900;4.748;2022-12-13T04:48:32;6.80;;;3.60;;
74963;SDS011;63521;51.900;4.748;2022-12-13T04:50:58;7.90;;;3.47;;
74963;SDS011;63521;51.900;4.748;2022-12-13T04:53:24;5.82;;;2.78;;
74963;SDS011;63521;51.900;4.748;2022-12-13T04:55:49;7.32;;;3.10;;
74963;SDS011;63521;51.900;4.748;2022-12-13T04:58:18;5.78;;;2.92;;
74963;SDS011;63521;51.900;4.748;2022-12-13T05:00:43;8.95;;;3.30;;
74963;SDS011;63521;51.900;4.748;2022-12-13T05:03:09;8.90;;;3.80;;
74963;SDS011;63521;51.900;4.748;2022-12-13T05:05:37;6.38;;;2.63;;
74963;SDS011;63521;51.900;4.748;2022-12-13T05:08:04;9.30;;;3.00;;
74963;SDS011;63521;51.900;4.748;2022-12-13T05:10:30;6.47;;;3.13;;
74963;SDS011;63521;51.900;4.748;2022-12-13T05:12:55;6.25;;;2.88;;
74963;SDS011;63521;51.900;4.748;2022-12-13T05:15:20;6.80;;;2.88;;
74963;SDS011;63521;51.900;4.748;2022-12-13T05:17:46;9.77;;;3.85;;
74963;SDS011;63521;51.900;4.748;2022-12-13T05:20:11;6.13;;;3.08;;
74963;SDS011;63521;51.900;4.748;2022-12-13T05:22:37;5.65;;;2.72;;
74963;SDS011;63521;51.900;4.748;2022-12-13T05:25:03;8.15;;;3.13;;
74963;SDS011;63521;51.900;4.748;2022-12-13T05:27:29;7.93;;;3.33;;
74963;SDS011;63521;51.900;4.748;2022-12-13T05:29:54;9.32;;;3.33;;
74963;SDS011;63521;51.900;4.748;2022-12-13T05:32:20;6.43;;;2.28;;
74963;SDS011;63521;51.900;4.748;2022-12-13T05:34:45;8.38;;;3.13;;
74963;SDS011;63521;51.900;4.748;2022-12-13T05:37:11;7.50;;;3.42;;
74963;SDS011;63521;51.900;4.748;2022-12-13T05:39:36;5.70;;;2.70;;
74963;SDS011;63521;51.900;4.748;2022-12-13T05:42:02;6.28;;;2.95;;
74963;SDS011;63521;51.900;4.748;2022-12-13T05:44:27;7.82;;;3.33;;
74963;SDS011;63521;51.900;4.748;2022-12-13T05:46:53;7.05;;;2.95;;
74963;SDS011;63521;51.900;4.748;2022-12-13T05:49:18;6.35;;;2.75;;
74963;SDS011;63521;51.900;4.748;2022-12-13T05:51:43;6.15;;;2.42;;
74963;SDS011;63521;51.900;4.748;2022-12-13T05:54:09;6.43;;;2.50;;
74963;SDS011;63521;51.900;4.748;2022-12-13T05:56:34;8.70;;;3.17;;
74963;SDS011;63521;51.900;4.748;2022-12-13T05:58:59;7.43;;;2.78;;
74963;SDS011;63521;51.900;4.748;2022-12-13T06:01:25;7.70;;;3.28;;
74963;SDS011;63521;51.900;4.748;2022-12-13T06:03:50;7.88;;;2.67;;
74963;SDS011;63521;51.900;4.748;2022-12-13T06:06:16;7.72;;;2.88;;
74963;SDS011;63521;51.900;4.748;2022-12-13T06:08:42;6.53;;;3.38;;
74963;SDS011;63521;51.900;4.748;2022-12-13T06:11:07;5.60;;;2.55;;
74963;SDS011;63521;51.900;4.748;2022-12-13T06:13:33;7.20;;;2.83;;
74963;SDS011;63521;51.900;4.748;2022-12-13T06:16:02;6.45;;;2.40;;
74963;SDS011;63521;51.900;4.748;2022-12-13T06:18:29;7.35;;;3.03;;
74963;SDS011;63521;51.900;4.748;2022-12-13T06:20:57;8.85;;;3.00;;
74963;SDS011;63521;51.900;4.748;2022-12-13T06:23:24;8.35;;;2.92;;
74963;SDS011;63521;51.900;4.748;2022-12-13T06:25:49;7.78;;;3.17;;
74963;SDS011;63521;51.900;4.748;2022-12-13T06:28:14;7.72;;;2.80;;
74963;SDS011;63521;51.900;4.748;2022-12-13T06:30:40;11.00;;;3.33;;
74963;SDS011;63521;51.900;4.748;2022-12-13T06:33:06;6.03;;;2.88;;
74963;SDS011;63521;51.900;4.748;2022-12-13T06:35:32;8.50;;;3.45;;
74963;SDS011;63521;51.900;4.748;2022-12-13T06:37:57;5.13;;;2.15;;
74963;SDS011;63521;51.900;4.748;2022-12-13T06:40:23;8.75;;;3.00;;
74963;SDS011;63521;51.900;4.748;2022-12-13T06:42:48;7.95;;;2.97;;
74963;SDS011;63521;51.900;4.748;2022-12-13T06:45:13;7.63;;;2.72;;
74963;SDS011;63521;51.900;4.748;2022-12-13T06:47:39;7.07;;;2.78;;
74963;SDS011;63521;51.900;4.748;2022-12-13T06:50:04;5.28;;;2.65;;
74963;SDS011;63521;51.900;4.748;2022-12-13T06:52:30;6.47;;;3.08;;
74963;SDS011;63521;51.900;4.748;2022-12-13T06:54:55;6.28;;;2.65;;
74963;SDS011;63521;51.900;4.748;2022-12-13T06:57:21;8.82;;;3.05;;
74963;SDS011;63521;51.900;4.748;2022-12-13T06:59:46;5.82;;;2.80;;
74963;SDS011;63521;51.900;4.748;2022-12-13T07:02:12;7.03;;;2.58;;
74963;SDS011;63521;51.900;4.748;2022-12-13T07:04:40;6.70;;;2.70;;
74963;SDS011;63521;51.900;4.748;2022-12-13T07:07:27;5.68;;;2.60;;
74963;SDS011;63521;51.900;4.748;2022-12-13T07:12:40;8.23;;;3.05;;
74963;SDS011;63521;51.900;4.748;2022-12-13T07:15:06;7.80;;;2.88;;
74963;SDS011;63521;51.900;4.748;2022-12-13T07:17:32;7.35;;;2.80;;
74963;SDS011;63521;51.900;4.748;2022-12-13T07:19:58;8.73;;;2.88;;
74963;SDS011;63521;51.900;4.748;2022-12-13T07:22:23;7.20;;;2.67;;
74963;SDS011;63521;51.900;4.748;2022-12-13T07:24:48;5.50;;;3.00;;
74963;SDS011;63521;51.900;4.748;2022-12-13T07:27:14;6.07;;;2.42;;
74963;SDS011;63521;51.900;4.748;2022-12-13T07:29:39;7.78;;;3.00;;
74963;SDS011;63521;51.900;4.748;2022-12-13T07:32:05;6.50;;;2.50;;
74963;SDS011;63521;51.900;4.748;2022-12-13T07:34:30;6.80;;;2.83;;
74963;SDS011;63521;51.900;4.748;2022-12-13T07:36:55;8.38;;;2.78;;
74963;SDS011;63521;51.900;4.748;2022-12-13T07:39:22;7.40;;;2.45;;
74963;SDS011;63521;51.900;4.748;2022-12-13T07:41:51;5.88;;;2.47;;
74963;SDS011;63521;51.900;4.748;2022-12-13T07:44:18;7.60;;;3.00;;
74963;SDS011;63521;51.900;4.748;2022-12-13T07:46:44;7.38;;;2.50;;
74963;SDS011;63521;51.900;4.748;2022-12-13T07:49:10;8.65;;;2.78;;
74963;SDS011;63521;51.900;4.748;2022-12-13T07:51:35;8.63;;;2.90;;
74963;SDS011;63521;51.900;4.748;2022-12-13T07:54:01;7.30;;;2.97;;
74963;SDS011;63521;51.900;4.748;2022-12-13T07:56:26;7.13;;;3.05;;
74963;SDS011;63521;51.900;4.748;2022-12-13T07:58:52;6.30;;;2.60;;
74963;SDS011;63521;51.900;4.748;2022-12-13T08:01:17;9.48;;;2.75;;
74963;SDS011;63521;51.900;4.748;2022-12-13T08:03:42;7.35;;;2.88;;
74963;SDS011;63521;51.900;4.748;2022-12-13T08:06:09;5.97;;;2.55;;
74963;SDS011;63521;51.900;4.748;2022-12-13T08:08:35;7.38;;;2.65;;
74963;SDS011;63521;51.900;4.748;2022-12-13T08:11:08;6.78;;;2.55;;
74963;SDS011;63521;51.900;4.748;2022-12-13T08:13:35;6.32;;;2.67;;
74963;SDS011;63521;51.900;4.748;2022-12-13T08:16:01;7.15;;;3.00;;
74963;SDS011;63521;51.900;4.748;2022-12-13T08:18:28;9.50;;;3.13;;
74963;SDS011;63521;51.900;4.748;2022-12-13T08:20:57;6.65;;;2.67;;
74963;SDS011;63521;51.900;4.748;2022-12-13T08:23:24;5.97;;;2.28;;
74963;SDS011;63521;51.900;4.748;2022-12-13T08:25:50;7.50;;;2.88;;
74963;SDS011;63521;51.900;4.748;2022-12-13T08:28:16;5.88;;;2.40;;
74963;SDS011;63521;51.900;4.748;2022-12-13T08:30:42;6.22;;;2.45;;
74963;SDS011;63521;51.900;4.748;2022-12-13T08:33:07;7.82;;;2.90;;
74963;SDS011;63521;51.900;4.748;2022-12-13T08:35:33;6.13;;;2.83;;
74963;SDS011;63521;51.900;4.748;2022-12-13T08:37:58;9.23;;;2.60;;
74963;SDS011;63521;51.900;4.748;2022-12-13T08:40:24;7.55;;;3.13;;
74963;SDS011;63521;51.900;4.748;2022-12-13T08:42:49;7.07;;;2.88;;
74963;SDS011;63521;51.900;4.748;2022-12-13T08:45:14;9.10;;;3.03;;
74963;SDS011;63521;51.900;4.748;2022-12-13T08:47:40;7.00;;;2.67;;
74963;SDS011;63521;51.900;4.748;2022-12-13T08:50:05;7.95;;;2.70;;
74963;SDS011;63521;51.900;4.748;2022-12-13T08:52:31;7.43;;;3.13;;
74963;SDS011;63521;51.900;4.748;2022-12-13T08:54:57;6.00;;;2.70;;
74963;SDS011;63521;51.900;4.748;2022-12-13T08:57:23;6.32;;;2.72;;
74963;SDS011;63521;51.900;4.748;2022-12-13T08:59:48;9.38;;;2.97;;
74963;SDS011;63521;51.900;4.748;2022-12-13T09:02:14;8.98;;;3.15;;
74963;SDS011;63521;51.900;4.748;2022-12-13T09:04:40;7.50;;;2.80;;
74963;SDS011;63521;51.900;4.748;2022-12-13T09:07:05;6.03;;;2.40;;
74963;SDS011;63521;51.900;4.748;2022-12-13T09:09:31;6.63;;;2.90;;
74963;SDS011;63521;51.900;4.748;2022-12-13T09:11:56;7.05;;;3.05;;
74963;SDS011;63521;51.900;4.748;2022-12-13T09:14:22;7.28;;;2.70;;
74963;SDS011;63521;51.900;4.748;2022-12-13T09:16:47;7.85;;;2.95;;
74963;SDS011;63521;51.900;4.748;2022-12-13T09:19:13;6.35;;;3.00;;
74963;SDS011;63521;51.900;4.748;2022-12-13T09:21:39;8.43;;;3.05;;
74963;SDS011;63521;51.900;4.748;2022-12-13T09:24:04;10.45;;;3.20;;
74963;SDS011;63521;51.900;4.748;2022-12-13T09:26:30;9.98;;;3.53;;
74963;SDS011;63521;51.900;4.748;2022-12-13T09:28:55;8.70;;;2.95;;
74963;SDS011;63521;51.900;4.748;2022-12-13T09:31:20;7.45;;;2.47;;
74963;SDS011;63521;51.900;4.748;2022-12-13T09:33:46;9.00;;;3.13;;
74963;SDS011;63521;51.900;4.748;2022-12-13T09:36:14;7.43;;;3.08;;
74963;SDS011;63521;51.900;4.748;2022-12-13T09:38:41;7.18;;;2.95;;
74963;SDS011;63521;51.900;4.748;2022-12-13T09:41:15;10.13;;;3.45;;
74963;SDS011;63521;51.900;4.748;2022-12-13T09:43:44;7.07;;;3.08;;
74963;SDS011;63521;51.900;4.748;2022-12-13T09:46:17;9.15;;;3.10;;
74963;SDS011;63521;51.900;4.748;2022-12-13T09:48:46;6.28;;;2.80;;
74963;SDS011;63521;51.900;4.748;2022-12-13T09:51:11;8.98;;;3.33;;
74963;SDS011;63521;51.900;4.748;2022-12-13T09:53:37;8.93;;;3.58;;
74963;SDS011;63521;51.900;4.748;2022-12-13T09:56:03;7.53;;;3.33;;
74963;SDS011;63521;51.900;4.748;2022-12-13T09:58:29;10.13;;;3.83;;
74963;SDS011;63521;51.900;4.748;2022-12-13T10:00:56;7.90;;;3.53;;
74963;SDS011;63521;51.900;4.748;2022-12-13T10:03:22;9.13;;;4.22;;
74963;SDS011;63521;51.900;4.748;2022-12-13T10:05:56;10.43;;;3.97;;
74963;SDS011;63521;51.900;4.748;2022-12-13T10:08:24;7.82;;;3.60;;
74963;SDS011;63521;51.900;4.748;2022-12-13T10:10:56;12.15;;;4.07;;
74963;SDS011;63521;51.900;4.748;2022-12-13T10:13:41;8.43;;;3.85;;
74963;SDS011;63521;51.900;4.748;2022-12-13T10:16:11;10.05;;;3.75;;
74963;SDS011;63521;51.900;4.748;2022-12-13T10:18:41;10.88;;;3.70;;
74963;SDS011;63521;51.900;4.748;2022-12-13T10:21:08;12.00;;;4.63;;
74963;SDS011;63521;51.900;4.748;2022-12-13T10:23:36;11.63;;;3.70;;
74963;SDS011;63521;51.900;4.748;2022-12-13T10:26:02;10.63;;;3.60;;
74963;SDS011;63521;51.900;4.748;2022-12-13T10:28:33;11.70;;;4.68;;
74963;SDS011;63521;51.900;4.748;2022-12-13T10:30:58;11.23;;;4.25;;
74963;SDS011;63521;51.900;4.748;2022-12-13T10:33:28;10.27;;;4.22;;
74963;SDS011;63521;51.900;4.748;2022-12-13T10:38:28;9.38;;;3.92;;
74963;SDS011;63521;51.900;4.748;2022-12-13T10:40:54;8.02;;;4.20;;
74963;SDS011;63521;51.900;4.748;2022-12-13T10:43:20;10.73;;;4.38;;
74963;SDS011;63521;51.900;4.748;2022-12-13T10:48:33;7.82;;;3.85;;
74963;SDS011;63521;51.900;4.748;2022-12-13T10:51:01;10.80;;;3.85;;
74963;SDS011;63521;51.900;4.748;2022-12-13T10:53:29;9.55;;;4.13;;
74963;SDS011;63521;51.900;4.748;2022-12-13T10:55:56;11.48;;;4.60;;
74963;SDS011;63521;51.900;4.748;2022-12-13T11:00:48;9.80;;;4.07;;
74963;SDS011;63521;51.900;4.748;2022-12-13T11:08:29;8.30;;;3.85;;
74963;SDS011;63521;51.900;4.748;2022-12-13T11:10:55;9.00;;;4.45;;
74963;SDS011;63521;51.900;4.748;2022-12-13T11:13:56;9.38;;;4.15;;
74963;SDS011;63521;51.900;4.748;2022-12-13T11:16:29;8.20;;;4.07;;
74963;SDS011;63521;51.900;4.748;2022-12-13T11:18:56;11.02;;;4.65;;
74963;SDS011;63521;51.900;4.748;2022-12-13T11:21:24;9.35;;;4.28;;
74963;SDS011;63521;51.900;4.748;2022-12-13T11:23:52;9.70;;;4.45;;
74963;SDS011;63521;51.900;4.748;2022-12-13T11:26:20;10.38;;;4.90;;
74963;SDS011;63521;51.900;4.748;2022-12-13T11:31:45;11.73;;;3.95;;
74963;SDS011;63521;51.900;4.748;2022-12-13T11:34:53;9.50;;;4.57;;
74963;SDS011;63521;51.900;4.748;2022-12-13T11:37:29;15.07;;;4.80;;
74963;SDS011;63521;51.900;4.748;2022-12-13T11:47:49;12.48;;;4.90;;
74963;SDS011;63521;51.900;4.748;2022-12-13T11:52:57;9.38;;;4.28;;
74963;SDS011;63521;51.900;4.748;2022-12-13T11:55:31;13.50;;;5.85;;
74963;SDS011;63521;51.900;4.748;2022-12-13T11:58:05;11.63;;;5.05;;
74963;SDS011;63521;51.900;4.748;2022-12-13T12:00:38;15.27;;;5.35;;
74963;SDS011;63521;51.900;4.748;2022-12-13T12:05:58;12.52;;;5.47;;
74963;SDS011;63521;51.900;4.748;2022-12-13T12:08:29;17.02;;;6.25;;
74963;SDS011;63521;51.900;4.748;2022-12-13T12:11:07;12.20;;;5.35;;
74963;SDS011;63521;51.900;4.748;2022-12-13T12:13:41;13.68;;;6.32;;
74963;SDS011;63521;51.900;4.748;2022-12-13T12:18:46;13.48;;;5.70;;
74963;SDS011;63521;51.900;4.748;2022-12-13T12:21:15;15.02;;;6.60;;
74963;SDS011;63521;51.900;4.748;2022-12-13T12:23:52;12.63;;;5.85;;
74963;SDS011;63521;51.900;4.748;2022-12-13T12:29:11;16.23;;;5.72;;
74963;SDS011;63521;51.900;4.748;2022-12-13T12:31:50;16.15;;;6.03;;
74963;SDS011;63521;51.900;4.748;2022-12-13T12:37:25;13.45;;;5.80;;
74963;SDS011;63521;51.900;4.748;2022-12-13T12:40:01;15.82;;;6.00;;
74963;SDS011;63521;51.900;4.748;2022-12-13T12:42:40;15.20;;;6.28;;
74963;SDS011;63521;51.900;4.748;2022-12-13T12:50:29;15.88;;;6.68;;
74963;SDS011;63521;51.900;4.748;2022-12-13T13:00:46;13.32;;;5.75;;
74963;SDS011;63521;51.900;4.748;2022-12-13T13:03:21;11.07;;;5.75;;
74963;SDS011;63521;51.900;4.748;2022-12-13T13:05:53;14.38;;;6.45;;
74963;SDS011;63521;51.900;4.748;2022-12-13T13:08:26;15.15;;;6.47;;
74963;SDS011;63521;51.900;4.748;2022-12-13T13:10:55;15.02;;;5.97;;
74963;SDS011;63521;51.900;4.748;2022-12-13T13:13:31;14.88;;;6.07;;
74963;SDS011;63521;51.900;4.748;2022-12-13T13:15:57;12.82;;;5.32;;
74963;SDS011;63521;51.900;4.748;2022-12-13T13:26:29;14.75;;;6.13;;
74963;SDS011;63521;51.900;4.748;2022-12-13T13:29:19;18.00;;;6.32;;
74963;SDS011;63521;51.900;4.748;2022-12-13T13:34:50;14.93;;;6.07;;
74963;SDS011;63521;51.900;4.748;2022-12-13T13:37:43;16.35;;;6.03;;
74963;SDS011;63521;51.900;4.748;2022-12-13T13:42:35;13.93;;;6.13;;
74963;SDS011;63521;51.900;4.748;2022-12-13T13:48:27;15.43;;;5.72;;
74963;SDS011;63521;51.900;4.748;2022-12-13T13:51:10;13.57;;;5.68;;
74963;SDS011;63521;51.900;4.748;2022-12-13T14:05:36;14.18;;;5.85;;
74963;SDS011;63521;51.900;4.748;2022-12-13T14:08:31;13.77;;;5.30;;
74963;SDS011;63521;51.900;4.748;2022-12-13T14:13:50;14.82;;;5.97;;
74963;SDS011;63521;51.900;4.748;2022-12-13T14:22:18;25.85;;;9.13;;
74963;SDS011;63521;51.900;4.748;2022-12-13T14:24:56;24.17;;;10.43;;
74963;SDS011;63521;51.900;4.748;2022-12-13T14:30:09;25.17;;;10.95;;
74963;SDS011;63521;51.900;4.748;2022-12-13T14:32:37;27.40;;;10.77;;
74963;SDS011;63521;51.900;4.748;2022-12-13T14:37:32;22.55;;;8.38;;
74963;SDS011;63521;51.900;4.748;2022-12-13T14:40:02;24.35;;;9.05;;
74963;SDS011;63521;51.900;4.748;2022-12-13T14:42:50;23.27;;;10.10;;
74963;SDS011;63521;51.900;4.748;2022-12-13T14:45:23;22.38;;;8.65;;
74963;SDS011;63521;51.900;4.748;2022-12-13T14:47:51;23.38;;;9.23;;
74963;SDS011;63521;51.900;4.748;2022-12-13T14:50:18;21.17;;;8.85;;
74963;SDS011;63521;51.900;4.748;2022-12-13T14:52:44;24.75;;;9.52;;
74963;SDS011;63521;51.900;4.748;2022-12-13T14:55:32;21.60;;;9.00;;
74963;SDS011;63521;51.900;4.748;2022-12-13T14:57:57;21.55;;;9.25;;
74963;SDS011;63521;51.900;4.748;2022-12-13T15:02:52;25.92;;;9.25;;
74963;SDS011;63521;51.900;4.748;2022-12-13T15:05:22;19.65;;;9.40;;
74963;SDS011;63521;51.900;4.748;2022-12-13T15:07:51;19.67;;;8.48;;
74963;SDS011;63521;51.900;4.748;2022-12-13T15:12:44;18.50;;;7.80;;
74963;SDS011;63521;51.900;4.748;2022-12-13T15:15:19;19.48;;;7.72;;
74963;SDS011;63521;51.900;4.748;2022-12-13T15:17:47;21.10;;;8.30;;
74963;SDS011;63521;51.900;4.748;2022-12-13T15:20:26;22.20;;;8.80;;
74963;SDS011;63521;51.900;4.748;2022-12-13T15:22:59;17.75;;;7.38;;
74963;SDS011;63521;51.900;4.748;2022-12-13T15:25:27;20.33;;;7.75;;
74963;SDS011;63521;51.900;4.748;2022-12-13T15:27:53;19.30;;;8.35;;
74963;SDS011;63521;51.900;4.748;2022-12-13T15:30:19;19.33;;;7.53;;
74963;SDS011;63521;51.900;4.748;2022-12-13T15:33:00;22.67;;;8.95;;
74963;SDS011;63521;51.900;4.748;2022-12-13T15:35:27;21.50;;;7.50;;
74963;SDS011;63521;51.900;4.748;2022-12-13T15:37:52;17.15;;;7.40;;
74963;SDS011;63521;51.900;4.748;2022-12-13T15:40:18;17.13;;;7.53;;
74963;SDS011;63521;51.900;4.748;2022-12-13T15:42:44;19.40;;;8.15;;
74963;SDS011;63521;51.900;4.748;2022-12-13T15:45:18;17.52;;;7.72;;
74963;SDS011;63521;51.900;4.748;2022-12-13T15:53:04;15.60;;;7.15;;
74963;SDS011;63521;51.900;4.748;2022-12-13T15:55:39;15.98;;;7.47;;
74963;SDS011;63521;51.900;4.748;2022-12-13T15:58:16;18.73;;;7.72;;
74963;SDS011;63521;51.900;4.748;2022-12-13T16:00:48;19.08;;;7.28;;
74963;SDS011;63521;51.900;4.748;2022-12-13T16:05:45;15.02;;;6.60;;
74963;SDS011;63521;51.900;4.748;2022-12-13T16:10:49;21.02;;;7.70;;
74963;SDS011;63521;51.900;4.748;2022-12-13T16:13:25;17.90;;;7.28;;
74963;SDS011;63521;51.900;4.748;2022-12-13T16:16:40;17.52;;;7.47;;
74963;SDS011;63521;51.900;4.748;2022-12-13T16:18:45;19.95;;;7.38;;
74963;SDS011;63521;51.900;4.748;2022-12-13T16:21:16;17.52;;;7.00;;
74963;SDS011;63521;51.900;4.748;2022-12-13T16:23:41;19.90;;;7.55;;
74963;SDS011;63521;51.900;4.748;2022-12-13T16:26:09;20.70;;;7.20;;
74963;SDS011;63521;51.900;4.748;2022-12-13T16:28:38;16.52;;;6.65;;
74963;SDS011;63521;51.900;4.748;2022-12-13T16:31:13;17.55;;;6.63;;
74963;SDS011;63521;51.900;4.748;2022-12-13T16:33:41;17.42;;;6.95;;
74963;SDS011;63521;51.900;4.748;2022-12-13T16:36:10;16.42;;;6.85;;
74963;SDS011;63521;51.900;4.748;2022-12-13T16:38:35;18.55;;;7.75;;
74963;SDS011;63521;51.900;4.748;2022-12-13T16:41:01;17.83;;;6.43;;
74963;SDS011;63521;51.900;4.748;2022-12-13T16:43:27;16.38;;;6.93;;
74963;SDS011;63521;51.900;4.748;2022-12-13T16:45:53;17.25;;;7.30;;
74963;SDS011;63521;51.900;4.748;2022-12-13T16:50:46;13.73;;;6.03;;
74963;SDS011;63521;51.900;4.748;2022-12-13T16:53:12;15.23;;;6.57;;
74963;SDS011;63521;51.900;4.748;2022-12-13T16:55:38;16.88;;;7.05;;
74963;SDS011;63521;51.900;4.748;2022-12-13T17:00:35;19.38;;;6.38;;
74963;SDS011;63521;51.900;4.748;2022-12-13T17:03:02;19.85;;;7.38;;
74963;SDS011;63521;51.900;4.748;2022-12-13T17:05:29;17.08;;;6.35;;
74963;SDS011;63521;51.900;4.748;2022-12-13T17:07:55;19.65;;;7.38;;
74963;SDS011;63521;51.900;4.748;2022-12-13T17:10:20;15.70;;;6.55;;
74963;SDS011;63521;51.900;4.748;2022-12-13T17:12:46;15.15;;;5.90;;
74963;SDS011;63521;51.900;4.748;2022-12-13T17:15:11;20.35;;;7.43;;
74963;SDS011;63521;51.900;4.748;2022-12-13T17:17:41;18.23;;;7.10;;